Time;durP1;ratioP1;P1;durP2;ratioP2;P2;SDS_P1;SDS_P2;PMS_P1;PMS_P2;Temp;Humidity;BMP_temperature;BMP_pressure;BME280_temperature;BME280_humidity;BME280_pressure;Samples;Min_cycle;Max_cycle;Signal;HPM_P1;HPM_P2
2023/10/08 00:01:02;;;;;;;16.17;10.18;;;;;;;;;;10311290;28;20081;-69
2023/10/08 00:06:06;;;;;;;19.23;10.57;;;;;;;;;;10299783;28;20053;-68
2023/10/08 00:11:06;;;;;;;18.33;11.02;;;;;;;;;;10299528;28;20041;-68
2023/10/08 00:16:08;;;;;;;19.52;11.43;;;;;;;;;;10301416;28;20684;-69
2023/10/08 00:26:07;;;;;;;;;;;;;;;;;;10306639;28;20540;-68
2023/10/08 00:31:06;;;;;;;20.20;11.20;;;;;;;;;;10310415;28;19931;-67
2023/10/08 00:36:17;;;;;;;15.95;12.07;;;;;;;;;;10301683;28;20139;-67
2023/10/08 00:41:16;;;;;;;17.27;11.55;;;;;;;;;;10309737;28;20049;-69
2023/10/08 00:46:35;;;;;;;19.17;11.65;;;;;;;;;;10313284;28;20044;-69
2023/10/08 00:51:40;;;;;;;17.80;11.32;;;;;;;;;;10293245;28;21190;-69
2023/10/08 01:01:51;;;;;;;16.75;10.20;;;;;;;;;;10298608;28;20764;-69
2023/10/08 01:06:51;;;;;;;16.52;9.13;;;;;;;;;;10294368;28;20439;-69
2023/10/08 01:12:08;;;;;;;16.55;9.82;;;;;;;;;;10301902;28;20091;-69
2023/10/08 01:17:06;;;;;;;15.20;9.38;;;;;;;;;;10304794;28;20044;-69
2023/10/08 01:22:07;;;;;;;14.55;9.27;;;;;;;;;;10307136;28;20056;-70
2023/10/08 01:27:05;;;;;;;19.95;10.25;;;;;;;;;;10304956;28;20052;-70
2023/10/08 01:32:02;;;;;;;13.93;8.48;;;;;;;;;;10285916;28;20528;-68
2023/10/08 01:37:03;;;;;;;11.75;9.73;;;;;;;;;;10308896;28;20528;-69
2023/10/08 01:41:59;;;;;;;15.30;9.57;;;;;;;;;;10305997;28;20071;-69
2023/10/08 01:46:58;;;;;;;15.18;9.20;;;;;;;;;;10310443;28;20190;-69
2023/10/08 01:51:54;;;;;;;10.43;8.63;;;;;;;;;;10312186;28;20057;-69
2023/10/08 01:56:50;;;;;;;14.65;9.93;;;;;;;;;;10290522;28;20056;-70
2023/10/08 02:01:47;;;;;;;9.73;8.77;;;;;;;;;;10303035;28;20052;-69
2023/10/08 02:06:45;;;;;;;12.25;8.90;;;;;;;;;;10313626;28;20052;-70
2023/10/08 02:11:50;;;;;;;9.18;8.00;;;;;;;;;;10295716;28;20441;-67
2023/10/08 02:16:47;;;;;;;11.80;8.30;;;;;;;;;;10302989;28;20102;-69
2023/10/08 02:21:46;;;;;;;12.45;7.55;;;;;;;;;;10295444;28;20118;-69
2023/10/08 02:26:43;;;;;;;14.15;8.82;;;;;;;;;;10312334;28;20058;-69
2023/10/08 02:31:40;;;;;;;15.70;8.80;;;;;;;;;;10299767;28;20143;-69
2023/10/08 02:36:36;;;;;;;12.85;8.80;;;;;;;;;;10305526;28;20567;-69
2023/10/08 02:41:32;;;;;;;14.23;8.93;;;;;;;;;;10310597;28;20072;-69
2023/10/08 02:46:32;;;;;;;10.90;9.30;;;;;;;;;;10305913;28;20040;-68
2023/10/08 02:51:29;;;;;;;15.85;9.10;;;;;;;;;;10306368;28;20102;-69
2023/10/08 02:56:25;;;;;;;12.85;8.52;;;;;;;;;;10308579;28;20420;-69
2023/10/08 03:01:21;;;;;;;11.70;8.32;;;;;;;;;;10302457;28;20052;-70
2023/10/08 03:06:18;;;;;;;8.57;7.82;;;;;;;;;;10287362;28;20712;-69
2023/10/08 03:11:18;;;;;;;8.98;7.75;;;;;;;;;;10302146;28;20063;-69
2023/10/08 03:16:14;;;;;;;8.10;7.15;;;;;;;;;;10299538;28;20480;-69
2023/10/08 03:21:20;;;;;;;9.13;7.22;;;;;;;;;;10295172;28;20052;-68
2023/10/08 03:26:39;;;;;;;7.78;6.95;;;;;;;;;;10293961;28;20057;-69
2023/10/08 03:36:45;;;;;;;10.50;7.28;;;;;;;;;;10295593;28;20045;-68
2023/10/08 03:41:42;;;;;;;9.40;5.70;;;;;;;;;;10291875;28;20041;-69
2023/10/08 03:46:40;;;;;;;13.02;7.10;;;;;;;;;;10297684;28;20041;-69
2023/10/08 03:51:39;;;;;;;13.05;6.70;;;;;;;;;;10296017;28;20056;-69
2023/10/08 03:56:41;;;;;;;7.90;5.78;;;;;;;;;;10295852;28;20067;-69
2023/10/08 04:01:39;;;;;;;10.63;7.13;;;;;;;;;;10311060;28;20054;-69
2023/10/08 04:11:35;;;;;;;10.18;6.68;;;;;;;;;;10294767;28;20091;-69
2023/10/08 04:16:36;;;;;;;8.75;7.10;;;;;;;;;;10302094;28;20143;-69
2023/10/08 04:21:33;;;;;;;8.65;6.63;;;;;;;;;;10296462;28;20660;-69
2023/10/08 04:26:31;;;;;;;10.48;6.75;;;;;;;;;;10294560;28;20053;-69
2023/10/08 04:31:36;;;;;;;12.13;6.97;;;;;;;;;;10291662;28;20044;-69
2023/10/08 04:36:32;;;;;;;7.13;6.53;;;;;;;;;;10299850;28;20130;-69
2023/10/08 04:41:29;;;;;;;6.75;6.05;;;;;;;;;;10296508;28;20056;-70
2023/10/08 04:46:46;;;;;;;8.80;6.30;;;;;;;;;;10298628;28;20645;-70
2023/10/08 04:51:43;;;;;;;11.65;5.90;;;;;;;;;;10295256;28;20064;-70
2023/10/08 04:56:40;;;;;;;7.82;7.10;;;;;;;;;;10312895;28;20048;-68
2023/10/08 05:01:47;;;;;;;6.38;5.78;;;;;;;;;;10301096;28;20573;-69
2023/10/08 05:11:56;;;;;;;11.18;6.35;;;;;;;;;;10310402;28;20044;-69
2023/10/08 05:17:21;;;;;;;10.77;6.13;;;;;;;;;;10298932;28;20056;-69
2023/10/08 05:22:29;;;;;;;8.52;5.80;;;;;;;;;;10296577;28;20559;-67
2023/10/08 05:27:49;;;;;;;7.28;6.32;;;;;;;;;;10311866;28;20048;-69
2023/10/08 05:33:05;;;;;;;7.22;6.38;;;;;;;;;;10299109;28;20402;-69
2023/10/08 05:38:13;;;;;;;8.80;5.90;;;;;;;;;;10306811;28;20133;-69
2023/10/08 05:43:23;;;;;;;8.45;6.40;;;;;;;;;;10277277;28;20115;-69
2023/10/08 05:48:27;;;;;;;6.68;6.07;;;;;;;;;;10308834;28;20121;-69
2023/10/08 05:53:43;;;;;;;12.23;7.68;;;;;;;;;;10293302;28;20056;-69
2023/10/08 05:58:45;;;;;;;7.20;6.43;;;;;;;;;;10306306;28;20052;-69
2023/10/08 06:04:00;;;;;;;9.57;7.05;;;;;;;;;;10306611;28;20127;-68
2023/10/08 06:09:21;;;;;;;9.25;6.97;;;;;;;;;;10288829;28;20082;-69
2023/10/08 06:14:13;;;;;;;10.80;7.00;;;;;;;;;;10299278;28;20040;-69
2023/10/08 06:19:10;;;;;;;9.27;6.43;;;;;;;;;;10307854;28;20056;-69
2023/10/08 06:24:11;;;;;;;13.40;7.70;;;;;;;;;;10296296;28;20048;-69
2023/10/08 06:29:18;;;;;;;9.55;7.10;;;;;;;;;;10300367;28;20521;-68
2023/10/08 06:34:16;;;;;;;7.95;7.05;;;;;;;;;;10299904;28;20057;-69
2023/10/08 06:39:18;;;;;;;13.20;7.30;;;;;;;;;;10305390;28;20044;-68
2023/10/08 06:44:15;;;;;;;;;;;;;;;;;;10297460;28;20420;-68
2023/10/08 06:49:11;;;;;;;8.02;6.13;;;;;;;;;;10274380;28;19925;-67
2023/10/08 06:54:17;;;;;;;7.20;5.95;;;;;;;;;;10302798;28;20052;-68
2023/10/08 06:59:13;;;;;;;11.23;7.38;;;;;;;;;;10288691;28;20061;-67
2023/10/08 07:04:12;;;;;;;14.88;5.95;;;;;;;;;;10285225;28;20060;-68
2023/10/08 07:09:22;;;;;;;9.85;6.18;;;;;;;;;;10299189;28;20101;-68
2023/10/08 07:14:19;;;;;;;6.80;5.20;;;;;;;;;;10297159;28;20114;-70
2023/10/08 07:19:17;;;;;;;9.50;6.22;;;;;;;;;;10297459;28;20048;-70
2023/10/08 07:24:17;;;;;;;10.38;5.80;;;;;;;;;;10290179;28;20049;-70
2023/10/08 07:29:17;;;;;;;7.28;6.20;;;;;;;;;;10296627;28;20040;-70
2023/10/08 07:34:18;;;;;;;8.57;7.50;;;;;;;;;;10301712;28;20053;-70
2023/10/08 07:39:33;;;;;;;7.00;6.18;;;;;;;;;;10301686;28;20056;-70
2023/10/08 07:44:30;;;;;;;7.05;6.30;;;;;;;;;;10286237;28;20140;-70
2023/10/08 07:49:30;;;;;;;6.70;4.68;;;;;;;;;;10294621;28;20076;-68
2023/10/08 07:54:34;;;;;;;8.15;4.82;;;;;;;;;;10291908;28;20440;-68
2023/10/08 07:59:30;;;;;;;9.60;4.85;;;;;;;;;;10275668;28;20091;-68
2023/10/08 08:04:33;;;;;;;9.57;5.63;;;;;;;;;;10302670;28;20613;-68
2023/10/08 08:09:29;;;;;;;7.28;4.03;;;;;;;;;;10290804;28;20515;-68
2023/10/08 08:14:26;;;;;;;6.95;4.00;;;;;;;;;;10299301;28;20573;-68
2023/10/08 08:19:25;;;;;;;8.65;5.10;;;;;;;;;;10306911;28;20053;-68
2023/10/08 08:24:29;;;;;;;5.20;4.70;;;;;;;;;;10295152;28;20096;-68
2023/10/08 08:29:25;;;;;;;;;;;;;;;;;;10295987;28;20056;-68
2023/10/08 08:34:21;;;;;;;9.32;4.35;;;;;;;;;;10301163;28;19968;-69
2023/10/08 08:39:32;;;;;;;8.20;3.78;;;;;;;;;;10304499;28;20056;-68
2023/10/08 08:44:31;;;;;;;5.07;3.10;;;;;;;;;;10310997;28;20101;-68
2023/10/08 08:49:29;;;;;;;7.80;4.20;;;;;;;;;;10283061;28;20102;-69
2023/10/08 08:54:25;;;;;;;6.03;3.40;;;;;;;;;;10300878;28;20049;-69
2023/10/08 08:59:23;;;;;;;4.43;3.28;;;;;;;;;;10309082;28;20072;-69
2023/10/08 09:04:32;;;;;;;4.57;2.97;;;;;;;;;;10302873;28;20136;-69
2023/10/08 09:09:32;;;;;;;7.63;4.25;;;;;;;;;;10298361;28;20412;-69
2023/10/08 09:14:36;;;;;;;10.00;3.38;;;;;;;;;;10302390;28;20475;-70
2023/10/08 09:19:39;;;;;;;5.38;3.00;;;;;;;;;;10300483;28;20068;-70
2023/10/08 09:24:39;;;;;;;5.45;2.83;;;;;;;;;;10299551;28;20410;-71
2023/10/08 09:29:41;;;;;;;5.35;3.10;;;;;;;;;;10296622;28;20048;-71
2023/10/08 09:34:38;;;;;;;;;;;;;;;;;;10293405;28;20117;-71
2023/10/08 09:39:35;;;;;;;7.63;3.45;;;;;;;;;;10303143;28;19980;-71
2023/10/08 09:44:32;;;;;;;10.30;3.20;;;;;;;;;;10293824;28;20516;-72
2023/10/08 09:49:31;;;;;;;4.07;2.70;;;;;;;;;;10295800;28;20128;-72
2023/10/08 09:54:32;;;;;;;5.07;2.92;;;;;;;;;;10300224;28;20504;-72
2023/10/08 09:59:30;;;;;;;5.07;3.15;;;;;;;;;;10285314;28;20069;-72
2023/10/08 10:04:31;;;;;;;7.15;3.10;;;;;;;;;;10306889;28;20040;-72
2023/10/08 10:09:28;;;;;;;8.97;3.03;;;;;;;;;;10299404;28;20049;-71
2023/10/08 10:14:25;;;;;;;4.72;2.63;;;;;;;;;;10307140;28;20531;-71
2023/10/08 10:19:23;;;;;;;4.50;2.95;;;;;;;;;;10302552;28;20101;-71
2023/10/08 10:24:27;;;;;;;3.38;2.83;;;;;;;;;;10288651;28;20049;-72
2023/10/08 10:29:26;;;;;;;8.10;2.83;;;;;;;;;;10290703;28;20040;-74
2023/10/08 10:34:27;;;;;;;7.28;3.50;;;;;;;;;;10300472;28;20547;-72
2023/10/08 10:39:27;;;;;;;6.05;3.40;;;;;;;;;;10303304;28;20095;-72
2023/10/08 10:44:24;;;;;;;3.42;2.75;;;;;;;;;;10295612;28;20063;-71
2023/10/08 10:49:32;;;;;;;4.18;3.38;;;;;;;;;;10296335;28;20056;-71
2023/10/08 10:54:36;;;;;;;7.45;3.60;;;;;;;;;;10290534;28;20578;-72
2023/10/08 10:59:37;;;;;;;5.10;2.80;;;;;;;;;;10289241;28;20185;-72
2023/10/08 11:04:47;;;;;;;4.10;2.85;;;;;;;;;;10298186;28;20098;-72
2023/10/08 11:09:44;;;;;;;4.32;3.10;;;;;;;;;;10302331;28;20061;-72
2023/10/08 11:14:41;;;;;;;6.82;3.10;;;;;;;;;;10297587;28;20150;-72
2023/10/08 11:19:38;;;;;;;3.13;2.70;;;;;;;;;;10295967;28;20048;-72
2023/10/08 11:24:34;;;;;;;3.80;3.00;;;;;;;;;;10297645;28;20136;-73
2023/10/08 11:29:31;;;;;;;8.40;2.92;;;;;;;;;;10280059;28;20135;-73
2023/10/08 11:34:39;;;;;;;4.57;3.20;;;;;;;;;;10285579;28;20102;-72
2023/10/08 11:39:45;;;;;;;4.70;2.70;;;;;;;;;;10284336;28;20088;-72
2023/10/08 11:44:43;;;;;;;4.05;2.95;;;;;;;;;;10292151;28;20080;-72
2023/10/08 11:49:46;;;;;;;4.28;2.47;;;;;;;;;;10297139;28;20608;-72
2023/10/08 11:54:44;;;;;;;3.33;2.60;;;;;;;;;;10287410;28;20045;-72
2023/10/08 11:59:41;;;;;;;4.75;3.10;;;;;;;;;;10299366;28;20061;-72
2023/10/08 12:04:39;;;;;;;9.07;3.10;;;;;;;;;;10296618;28;20106;-71
2023/10/08 12:09:39;;;;;;;4.38;3.10;;;;;;;;;;10297336;28;20060;-72
2023/10/08 12:14:37;;;;;;;6.30;3.35;;;;;;;;;;10293497;28;20044;-72
2023/10/08 12:19:35;;;;;;;4.53;3.00;;;;;;;;;;10285548;28;20072;-72
2023/10/08 12:24:33;;;;;;;5.93;3.25;;;;;;;;;;10293765;28;20048;-75
2023/10/08 12:29:32;;;;;;;4.60;2.90;;;;;;;;;;10299483;28;20493;-74
2023/10/08 12:34:29;;;;;;;4.32;2.90;;;;;;;;;;10289540;28;20088;-73
2023/10/08 12:39:28;;;;;;;4.57;3.20;;;;;;;;;;10290998;28;20065;-73
2023/10/08 12:44:24;;;;;;;5.63;3.88;;;;;;;;;;10274618;28;20044;-74
2023/10/08 12:49:22;;;;;;;5.50;4.20;;;;;;;;;;10286032;28;20055;-74
2023/10/08 12:54:22;;;;;;;3.72;2.60;;;;;;;;;;10298862;28;20045;-74
2023/10/08 12:59:21;;;;;;;4.10;3.13;;;;;;;;;;10304416;28;20136;-74
2023/10/08 13:04:26;;;;;;;7.35;3.10;;;;;;;;;;10311566;28;20044;-74
2023/10/08 13:09:24;;;;;;;4.32;2.80;;;;;;;;;;10302944;28;20048;-72
2023/10/08 13:14:22;;;;;;;5.53;3.10;;;;;;;;;;10279304;28;20144;-73
2023/10/08 13:19:19;;;;;;;4.85;2.72;;;;;;;;;;10308079;28;20040;-73
2023/10/08 13:24:16;;;;;;;8.32;2.90;;;;;;;;;;10292870;28;20041;-73
2023/10/08 13:29:13;;;;;;;7.18;2.63;;;;;;;;;;10300036;28;20045;-72
2023/10/08 13:34:12;;;;;;;3.72;2.90;;;;;;;;;;10280186;28;20040;-72
2023/10/08 13:39:09;;;;;;;3.90;2.90;;;;;;;;;;10297317;28;20051;-72
2023/10/08 13:44:06;;;;;;;6.13;3.20;;;;;;;;;;10292235;28;20057;-72
2023/10/08 13:49:05;;;;;;;6.03;3.00;;;;;;;;;;10306131;28;20076;-72
2023/10/08 13:54:06;;;;;;;4.90;3.20;;;;;;;;;;10300428;28;20094;-72
2023/10/08 13:59:11;;;;;;;5.55;3.15;;;;;;;;;;10304915;28;20125;-72
2023/10/08 14:04:09;;;;;;;5.32;3.50;;;;;;;;;;10289247;28;20045;-73
2023/10/08 14:09:08;;;;;;;4.05;3.03;;;;;;;;;;10304148;28;20547;-73
2023/10/08 14:14:07;;;;;;;5.20;3.38;;;;;;;;;;10299771;28;20048;-74
2023/10/08 14:19:05;;;;;;;4.85;3.42;;;;;;;;;;10300241;28;20041;-74
2023/10/08 14:24:03;;;;;;;4.75;3.15;;;;;;;;;;10297791;28;20141;-74
2023/10/08 14:29:07;;;;;;;8.18;3.60;;;;;;;;;;10299143;28;20076;-73
2023/10/08 14:34:18;;;;;;;4.88;3.53;;;;;;;;;;10294818;28;20052;-74
2023/10/08 14:44:30;;;;;;;4.85;3.55;;;;;;;;;;10303418;28;20068;-73
2023/10/08 14:49:26;;;;;;;5.47;4.25;;;;;;;;;;10299722;28;20535;-74
2023/10/08 14:54:24;;;;;;;6.20;4.00;;;;;;;;;;10299392;28;20044;-73
2023/10/08 14:59:20;;;;;;;4.82;3.00;;;;;;;;;;10297724;28;20045;-73
2023/10/08 15:04:18;;;;;;;5.07;3.58;;;;;;;;;;10278100;28;20040;-74
2023/10/08 15:09:21;;;;;;;5.57;3.72;;;;;;;;;;10302498;28;20646;-74
2023/10/08 15:14:18;;;;;;;5.07;4.13;;;;;;;;;;10289633;28;20051;-74
2023/10/08 15:19:15;;;;;;;4.45;3.65;;;;;;;;;;10300472;28;20080;-74
2023/10/08 15:24:14;;;;;;;6.30;3.80;;;;;;;;;;10282374;28;20045;-73
2023/10/08 15:29:13;;;;;;;5.93;4.70;;;;;;;;;;10280607;28;20669;-74
2023/10/08 15:34:12;;;;;;;6.10;4.45;;;;;;;;;;10294544;28;20048;-74
2023/10/08 15:39:28;;;;;;;5.95;4.35;;;;;;;;;;10289991;28;20048;-73
2023/10/08 15:44:24;;;;;;;5.90;4.75;;;;;;;;;;10295368;28;20061;-73
2023/10/08 15:49:21;;;;;;;7.15;4.82;;;;;;;;;;10294431;28;20061;-74
2023/10/08 15:54:20;;;;;;;7.70;4.70;;;;;;;;;;10297076;28;20566;-74
2023/10/08 15:59:17;;;;;;;9.07;5.15;;;;;;;;;;10303708;28;21275;-74
2023/10/08 16:04:13;;;;;;;6.43;5.40;;;;;;;;;;10303901;28;20641;-74
2023/10/08 16:09:10;;;;;;;8.52;5.65;;;;;;;;;;10297175;28;20409;-73
2023/10/08 16:14:07;;;;;;;5.68;4.43;;;;;;;;;;10294598;28;20679;-73
2023/10/08 16:19:03;;;;;;;8.38;4.93;;;;;;;;;;10280991;28;20052;-74
2023/10/08 16:24:00;;;;;;;5.55;4.93;;;;;;;;;;10295571;28;20098;-73
2023/10/08 16:28:56;;;;;;;6.70;5.20;;;;;;;;;;10296160;28;20508;-74
2023/10/08 16:33:53;;;;;;;8.13;5.13;;;;;;;;;;10281653;28;20056;-75
2023/10/08 16:38:53;;;;;;;6.40;5.07;;;;;;;;;;10301691;28;20076;-74
2023/10/08 16:43:50;;;;;;;5.55;4.95;;;;;;;;;;10298114;28;20049;-74
2023/10/08 16:48:46;;;;;;;11.82;5.95;;;;;;;;;;10300750;28;20066;-74
2023/10/08 16:53:43;;;;;;;6.80;5.63;;;;;;;;;;10294707;28;20825;-74
2023/10/08 16:58:39;;;;;;;5.97;5.35;;;;;;;;;;10300822;28;20114;-74
2023/10/08 17:03:36;;;;;;;5.90;5.28;;;;;;;;;;10303016;28;20056;-74
2023/10/08 17:08:33;;;;;;;6.63;5.07;;;;;;;;;;10292394;28;20053;-74
2023/10/08 17:13:29;;;;;;;9.38;6.05;;;;;;;;;;10296287;28;21756;-75
2023/10/08 17:18:29;;;;;;;6.85;6.03;;;;;;;;;;10291547;28;20049;-75
2023/10/08 17:23:26;;;;;;;11.15;8.32;;;;;;;;;;10294906;28;20132;-75
2023/10/08 17:28:22;;;;;;;12.98;8.75;;;;;;;;;;10296227;28;20044;-76
2023/10/08 17:33:19;;;;;;;14.95;9.73;;;;;;;;;;10291352;28;20427;-77
2023/10/08 17:38:16;;;;;;;11.73;9.05;;;;;;;;;;10296719;28;20037;-77
2023/10/08 17:43:12;;;;;;;14.52;8.88;;;;;;;;;;10278429;28;20056;-77
2023/10/08 17:48:09;;;;;;;13.80;9.15;;;;;;;;;;10296774;28;20053;-77
2023/10/08 17:53:06;;;;;;;18.02;12.32;;;;;;;;;;10294595;28;20531;-76
2023/10/08 17:58:03;;;;;;;13.88;10.73;;;;;;;;;;10289207;28;20068;-76
2023/10/08 18:02:59;;;;;;;12.60;9.68;;;;;;;;;;10271121;28;20049;-77
2023/10/08 18:07:56;;;;;;;10.73;8.98;;;;;;;;;;10294941;28;20787;-76
2023/10/08 18:12:52;;;;;;;10.55;8.50;;;;;;;;;;10299743;28;20098;-76
2023/10/08 18:17:49;;;;;;;13.15;7.43;;;;;;;;;;10295366;28;20036;-76
2023/10/08 18:40:53;;;;;;;;;;;;;;;;;;;;;
2023/10/08 18:46:20;;;;;;;11.23;7.95;;;;;;;;;;10272592;28;20083;-76
2023/10/08 18:51:42;;;;;;;9.30;7.38;;;;;;;;;;10286708;28;20040;-76
2023/10/08 18:56:39;;;;;;;9.65;6.97;;;;;;;;;;10313746;28;20055;-76
2023/10/08 19:01:37;;;;;;;8.45;6.60;;;;;;;;;;10303541;28;20053;-76
2023/10/08 19:06:34;;;;;;;8.13;6.15;;;;;;;;;;10307493;28;20048;-77
2023/10/08 19:11:32;;;;;;;10.35;6.28;;;;;;;;;;10310459;28;20098;-77
2023/10/08 19:16:30;;;;;;;9.68;6.45;;;;;;;;;;10281043;28;20128;-77
2023/10/08 19:21:28;;;;;;;8.95;6.50;;;;;;;;;;10299719;28;20087;-77
2023/10/08 19:26:28;;;;;;;10.68;6.72;;;;;;;;;;10301138;28;20048;-76
2023/10/08 19:31:25;;;;;;;8.88;7.63;;;;;;;;;;10298332;28;20589;-77
2023/10/08 19:36:23;;;;;;;8.38;7.22;;;;;;;;;;10293577;28;20072;-77
2023/10/08 19:41:22;;;;;;;7.85;6.57;;;;;;;;;;10307001;28;20423;-77
2023/10/08 19:46:25;;;;;;;11.50;7.47;;;;;;;;;;10305985;28;20086;-76
2023/10/08 19:51:22;;;;;;;9.32;7.13;;;;;;;;;;10298595;28;20057;-77
2023/10/08 19:56:19;;;;;;;9.27;7.45;;;;;;;;;;10305010;28;20752;-76
2023/10/08 20:01:16;;;;;;;9.93;6.88;;;;;;;;;;10297304;28;20053;-76
2023/10/08 20:06:13;;;;;;;8.13;7.28;;;;;;;;;;10303657;28;20600;-75
2023/10/08 20:11:13;;;;;;;10.50;7.72;;;;;;;;;;10308148;28;20185;-76
2023/10/08 20:16:10;;;;;;;10.93;7.50;;;;;;;;;;10298533;28;20515;-72
2023/10/08 20:21:07;;;;;;;8.90;7.40;;;;;;;;;;10305904;28;20055;-73
2023/10/08 20:26:13;;;;;;;11.05;7.97;;;;;;;;;;10307270;28;20512;-69
2023/10/08 20:31:14;;;;;;;10.05;6.97;;;;;;;;;;10305986;28;20105;-68
2023/10/08 20:36:10;;;;;;;9.13;8.07;;;;;;;;;;10304451;28;20048;-68
2023/10/08 20:41:14;;;;;;;9.85;7.57;;;;;;;;;;10315741;28;20056;-67
2023/10/08 20:46:13;;;;;;;10.20;7.82;;;;;;;;;;10307850;28;20107;-68
2023/10/08 20:51:11;;;;;;;9.05;7.32;;;;;;;;;;10306628;28;20066;-67
2023/10/08 20:56:08;;;;;;;8.50;6.88;;;;;;;;;;10309731;28;20040;-67
2023/10/08 21:01:06;;;;;;;8.27;6.63;;;;;;;;;;10296199;28;20064;-67
2023/10/08 21:06:03;;;;;;;7.70;6.70;;;;;;;;;;10313958;28;20057;-67
2023/10/08 21:10:59;;;;;;;9.57;6.80;;;;;;;;;;10308937;28;20072;-67
2023/10/08 21:16:00;;;;;;;7.72;6.93;;;;;;;;;;10302820;28;20057;-67
2023/10/08 21:20:57;;;;;;;7.55;6.75;;;;;;;;;;10298137;28;20115;-67
2023/10/08 21:25:53;;;;;;;12.40;7.18;;;;;;;;;;10314239;28;20055;-68
2023/10/08 21:30:50;;;;;;;8.93;6.68;;;;;;;;;;10308446;28;20060;-68
2023/10/08 21:35:46;;;;;;;8.50;6.82;;;;;;;;;;10312809;28;20046;-68
2023/10/08 21:40:43;;;;;;;7.68;6.85;;;;;;;;;;10313713;28;20053;-68
2023/10/08 21:45:39;;;;;;;8.65;6.05;;;;;;;;;;10308254;28;20094;-68
2023/10/08 21:50:36;;;;;;;7.85;7.10;;;;;;;;;;10310988;28;20507;-68
2023/10/08 21:55:33;;;;;;;8.13;7.22;;;;;;;;;;10307116;28;20094;-68
2023/10/08 22:05:30;;;;;;;9.73;7.72;;;;;;;;;;10305898;28;20048;-67
2023/10/08 22:10:27;;;;;;;7.95;7.20;;;;;;;;;;10300205;28;20194;-67
2023/10/08 22:15:28;;;;;;;8.68;7.88;;;;;;;;;;10303873;28;20052;-67
2023/10/08 22:25:36;;;;;;;8.77;7.85;;;;;;;;;;10312521;28;20064;-68
2023/10/08 22:30:35;;;;;;;11.20;7.38;;;;;;;;;;10289891;28;20105;-68
2023/10/08 22:35:32;;;;;;;8.40;7.55;;;;;;;;;;10312582;28;20084;-67
2023/10/08 22:45:52;;;;;;;13.52;7.35;;;;;;;;;;10309526;28;20570;-67
2023/10/08 22:50:51;;;;;;;7.68;6.88;;;;;;;;;;10303414;28;20048;-67
2023/10/08 22:55:48;;;;;;;7.55;6.85;;;;;;;;;;10283603;28;20053;-66
2023/10/08 23:00:49;;;;;;;8.27;7.47;;;;;;;;;;10302702;28;20114;-66
2023/10/08 23:05:46;;;;;;;12.77;7.17;;;;;;;;;;10306118;28;20054;-67
2023/10/08 23:10:42;;;;;;;7.40;6.70;;;;;;;;;;10307158;28;20049;-67
2023/10/08 23:15:43;;;;;;;10.80;7.70;;;;;;;;;;10308639;28;20052;-67
2023/10/08 23:20:43;;;;;;;7.30;6.50;;;;;;;;;;10296950;28;20056;-67
2023/10/08 23:25:40;;;;;;;8.30;7.50;;;;;;;;;;10309788;28;20401;-68
2023/10/08 23:30:36;;;;;;;7.55;6.80;;;;;;;;;;10301004;28;20068;-66
2023/10/08 23:35:33;;;;;;;9.90;7.50;;;;;;;;;;10308671;28;20539;-69
2023/10/08 23:40:30;;;;;;;10.75;8.07;;;;;;;;;;10307491;28;20548;-67
2023/10/08 23:45:27;;;;;;;9.23;7.32;;;;;;;;;;10302957;28;20106;-69
2023/10/08 23:50:30;;;;;;;7.43;6.80;;;;;;;;;;10298828;28;20044;-69
2023/10/08 23:55:30;;;;;;;8.25;7.50;;;;;;;;;;10301917;28;20513;-69
